Time;durP1;ratioP1;P1;durP2;ratioP2;P2;SDS_P1;SDS_P2;PMS_P1;PMS_P2;Temp;Humidity;BMP_temperature;BMP_pressure;BME280_temperature;BME280_humidity;BME280_pressure;Samples;Min_cycle;Max_cycle;Signal;HPM_P1;HPM_P2
2022/11/11 00:02:03;;;;;;;44.33;12.67;;;;;5.60;97723.00;;;;8468278;27;20214;-81
2022/11/11 00:06:10;;;;;;;62.17;13.37;;;;;5.50;97724.00;;;;8468292;27;20225;-80
2022/11/11 00:10:41;;;;;;;169.67;15.83;;;;;5.50;97720.00;;;;8467951;27;20218;-81
2022/11/11 00:14:44;;;;;;;66.33;11.93;;;;;5.20;97720.00;;;;8468041;27;20244;-80
2022/11/11 00:27:44;;;;;;;56.83;12.00;;;;;5.00;97743.00;;;;8433058;28;20223;-80
2022/11/11 00:36:06;;;;;;;134.23;15.77;;;;;4.90;97741.00;;;;8432454;28;20302;-84
2022/11/11 00:40:22;;;;;;;43.97;12.33;;;;;4.80;97736.00;;;;8432857;28;20227;-84
2022/11/11 00:44:25;;;;;;;90.70;14.33;;;;;4.70;97755.00;;;;8433160;28;20219;-83
2022/11/11 00:52:50;;;;;;;120.60;14.30;;;;;4.60;97748.00;;;;8432683;28;20691;-82
2022/11/11 00:56:53;;;;;;;248.33;20.47;;;;;4.60;97745.00;;;;8465922;27;20248;-81
2022/11/11 01:00:56;;;;;;;218.83;18.07;;;;;4.50;97744.00;;;;8466382;27;20316;-81
2022/11/11 01:05:00;;;;;;;123.57;14.93;;;;;4.40;97735.00;;;;8464409;27;20215;-81
2022/11/11 01:09:38;;;;;;;43.40;13.37;;;;;4.40;97729.00;;;;8466240;27;20245;-81
2022/11/11 01:13:42;;;;;;;124.40;15.43;;;;;4.40;97736.00;;;;8465382;27;20225;-81
2022/11/11 01:17:45;;;;;;;48.23;11.60;;;;;4.30;97725.00;;;;8466090;27;20229;-81
2022/11/11 01:21:48;;;;;;;30.40;10.73;;;;;4.30;97728.00;;;;8465119;27;20541;-81
2022/11/11 01:25:53;;;;;;;177.83;16.47;;;;;4.30;97728.00;;;;8465805;27;20643;-80
2022/11/11 01:29:56;;;;;;;182.13;16.67;;;;;4.20;97733.00;;;;8431398;28;20287;-79
2022/11/11 01:34:33;;;;;;;132.57;15.97;;;;;4.10;97729.00;;;;8432505;28;20690;-79
2022/11/11 01:38:37;;;;;;;198.00;16.00;;;;;4.10;97733.00;;;;8464315;27;20272;-80
2022/11/11 01:42:49;;;;;;;116.37;14.43;;;;;4.00;97733.00;;;;8465042;27;20724;-79
2022/11/11 01:46:55;;;;;;;263.00;18.93;;;;;4.00;97724.00;;;;8465258;27;20654;-79
2022/11/11 01:50:58;;;;;;;116.97;13.93;;;;;3.90;97724.00;;;;8464391;27;20217;-81
2022/11/11 01:55:05;;;;;;;127.13;13.13;;;;;3.90;97730.00;;;;8464214;27;20214;-80
2022/11/11 01:59:15;;;;;;;120.50;15.83;;;;;3.90;97739.00;;;;8465164;27;20610;-79
2022/11/11 02:05:40;;;;;;;99.63;13.33;;;;;3.90;97731.00;;;;8459502;27;20681;-79
2022/11/11 02:08:11;;;;;;;97.73;13.73;;;;;4.00;97746.00;;;;8464418;27;20273;-79
2022/11/11 02:16:51;;;;;;;85.47;12.07;;;;;4.00;97756.00;;;;8463545;27;20688;-80
2022/11/11 02:20:55;;;;;;;80.43;12.23;;;;;4.00;97755.00;;;;8462786;27;20226;-80
2022/11/11 02:25:02;;;;;;;188.43;16.47;;;;;4.10;97755.00;;;;8462504;27;20616;-80
2022/11/11 02:29:12;;;;;;;219.13;17.03;;;;;4.20;97759.00;;;;8463653;27;20218;-80
2022/11/11 02:33:16;;;;;;;38.17;10.40;;;;;4.20;97756.00;;;;8462792;27;20219;-80
2022/11/11 02:37:23;;;;;;;63.93;12.10;;;;;4.30;97751.00;;;;8463456;27;20218;-80
2022/11/11 02:45:47;;;;;;;60.77;12.47;;;;;4.50;97748.00;;;;8422096;28;20343;-81
2022/11/11 02:49:51;;;;;;;62.73;12.70;;;;;4.50;97747.00;;;;8494406;27;20303;-79
2022/11/11 02:54:28;;;;;;;68.70;12.17;;;;;4.60;97750.00;;;;8496828;27;20220;-78
2022/11/11 02:58:33;;;;;;;100.07;12.87;;;;;4.60;97746.00;;;;8495074;27;20269;-77
2022/11/11 03:02:36;;;;;;;111.33;14.27;;;;;4.70;97750.00;;;;8495933;27;20222;-79
2022/11/11 03:06:39;;;;;;;142.13;15.00;;;;;4.70;97760.00;;;;8496283;27;20574;-80
2022/11/11 03:11:13;;;;;;;130.13;15.23;;;;;4.80;97752.00;;;;8495014;27;20218;-79
2022/11/11 03:15:18;;;;;;;184.73;15.70;;;;;4.80;97762.00;;;;8495794;27;20570;-81
2022/11/11 03:19:21;;;;;;;204.77;17.80;;;;;4.80;97772.00;;;;8496374;27;20623;-81
2022/11/11 03:23:24;;;;;;;199.43;16.83;;;;;4.80;97775.00;;;;8495869;27;20225;-81
2022/11/11 03:27:59;;;;;;;158.10;14.97;;;;;4.80;97765.00;;;;8490996;27;20217;-80
2022/11/11 03:32:04;;;;;;;73.23;12.70;;;;;4.90;97768.00;;;;8495257;27;20233;-80
2022/11/11 03:36:08;;;;;;;130.13;13.90;;;;;5.00;97760.00;;;;8494386;27;20228;-80
2022/11/11 03:40:11;;;;;;;145.33;15.57;;;;;5.10;97760.00;;;;8495030;27;20259;-79
2022/11/11 03:44:14;;;;;;;210.67;17.73;;;;;5.10;97777.00;;;;8495004;27;20213;-80
2022/11/11 03:48:52;;;;;;;131.83;14.73;;;;;5.20;97780.00;;;;8494314;27;20232;-81
2022/11/11 03:53:26;;;;;;;170.80;16.23;;;;;5.20;97781.00;;;;8494118;27;20523;-81
2022/11/11 03:57:32;;;;;;;132.97;15.40;;;;;5.30;97790.00;;;;8494639;27;20283;-80
2022/11/11 04:10:24;;;;;;;141.47;15.60;;;;;5.50;97793.00;;;;8494875;27;20360;-82
2022/11/11 04:23:24;;;;;;;155.50;12.97;;;;;5.50;97780.00;;;;8493683;27;20680;-84
2022/11/11 04:32:37;;;;;;;136.80;13.63;;;;;5.50;97775.00;;;;8493295;27;20278;-82
2022/11/11 04:36:41;;;;;;;162.17;14.53;;;;;5.50;97777.00;;;;8493654;27;20231;-76
2022/11/11 04:41:02;;;;;;;96.40;12.47;;;;;5.50;97777.00;;;;8493792;27;20225;-75
2022/11/11 04:45:37;;;;;;;148.57;14.13;;;;;5.50;97779.00;;;;8498339;27;20214;-76
2022/11/11 04:50:16;;;;;;;160.30;14.20;;;;;5.60;97778.00;;;;8498851;27;20532;-75
2022/11/11 04:59:50;;;;;;;115.70;12.97;;;;;5.60;97789.00;;;;8498291;27;20218;-75
2022/11/11 05:03:54;;;;;;;192.27;15.50;;;;;5.70;97797.00;;;;8499624;27;20531;-75
2022/11/11 05:12:32;;;;;;;171.03;15.60;;;;;5.70;97801.00;;;;8499655;27;20589;-75
2022/11/11 05:21:47;;;;;;;175.07;16.70;;;;;5.80;97822.00;;;;8499193;27;20218;-75
2022/11/11 05:26:21;;;;;;;215.10;18.50;;;;;5.80;97823.00;;;;8496970;27;20217;-76
2022/11/11 05:30:57;;;;;;;145.53;15.07;;;;;5.90;97833.00;;;;8498213;27;22068;-76
2022/11/11 05:35:35;;;;;;;182.47;15.20;;;;;5.90;97821.00;;;;8498996;27;20708;-76
2022/11/11 05:40:12;;;;;;;175.90;15.00;;;;;5.90;97836.00;;;;8497710;27;20217;-75
2022/11/11 05:44:50;;;;;;;158.30;15.03;;;;;5.90;97837.00;;;;8498480;27;20214;-75
2022/11/11 05:49:24;;;;;;;176.47;15.53;;;;;5.90;97827.00;;;;8497875;27;20214;-76
2022/11/11 05:54:01;;;;;;;264.47;18.60;;;;;5.90;97835.00;;;;8497501;27;20213;-76
2022/11/11 05:58:37;;;;;;;225.57;18.30;;;;;5.90;97843.00;;;;8497461;27;20217;-74
2022/11/11 06:03:15;;;;;;;53.57;10.83;;;;;6.00;97846.00;;;;8496602;27;20276;-76
2022/11/11 06:07:37;;;;;;;107.60;13.20;;;;;6.00;97853.00;;;;8496830;27;20213;-74
2022/11/11 06:11:40;;;;;;;256.93;17.63;;;;;6.00;97861.00;;;;8496642;27;20223;-75
2022/11/11 06:16:17;;;;;;;254.33;16.73;;;;;5.90;97862.00;;;;8497120;27;20658;-76
2022/11/11 06:20:55;;;;;;;252.47;18.57;;;;;5.90;97874.00;;;;8496133;27;20251;-79
2022/11/11 06:30:06;;;;;;;206.23;16.73;;;;;6.00;97887.00;;;;8497034;27;20229;-78
2022/11/11 06:34:41;;;;;;;216.90;25.83;;;;;6.10;97890.00;;;;8495725;27;20232;-78
2022/11/11 06:43:44;;;;;;;274.87;18.53;;;;;6.30;97902.00;;;;8462794;28;20608;-77
2022/11/11 06:48:18;;;;;;;206.93;17.93;;;;;6.40;97905.00;;;;8462004;28;20700;-79
2022/11/11 06:52:55;;;;;;;237.87;21.37;;;;;6.40;97900.00;;;;8462197;28;20225;-78
2022/11/11 06:56:58;;;;;;;127.27;14.70;;;;;6.50;97898.00;;;;8460225;28;20284;-78
2022/11/11 07:01:06;;;;;;;188.00;17.23;;;;;6.60;97906.00;;;;8461663;28;20694;-78
2022/11/11 07:05:09;;;;;;;129.47;15.17;;;;;6.60;97908.00;;;;8460326;28;20222;-79
2022/11/11 07:09:12;;;;;;;141.90;16.60;;;;;6.60;97906.00;;;;8461568;28;20218;-79
2022/11/11 07:13:50;;;;;;;236.63;18.93;;;;;6.50;97899.00;;;;8457954;28;20276;-80
2022/11/11 07:18:12;;;;;;;145.07;15.07;;;;;6.60;97899.00;;;;8456837;28;20563;-80
2022/11/11 07:22:46;;;;;;;213.67;19.33;;;;;6.60;97894.00;;;;8460153;28;20222;-80
2022/11/11 07:27:23;;;;;;;154.23;16.27;;;;;6.60;97899.00;;;;8460420;28;20215;-82
2022/11/11 07:32:00;;;;;;;169.73;17.47;;;;;6.60;97889.00;;;;8461217;28;20215;-82
2022/11/11 07:36:05;;;;;;;236.13;20.07;;;;;6.60;97887.00;;;;8459980;28;20218;-82
2022/11/11 07:40:26;;;;;;;261.03;20.30;;;;;6.60;97888.00;;;;8460125;28;20227;-81
2022/11/11 07:45:04;;;;;;;246.10;19.80;;;;;6.50;97883.00;;;;8461309;28;20580;-81
2022/11/11 07:49:40;;;;;;;188.73;18.00;;;;;6.50;97889.00;;;;8458139;28;20221;-80
2022/11/11 07:54:19;;;;;;;405.77;25.53;;;;;6.70;97898.00;;;;8459975;28;20214;-79
2022/11/11 07:58:52;;;;;;;404.47;25.97;;;;;6.70;97902.00;;;;8451927;28;20287;-81
2022/11/11 08:03:29;;;;;;;425.17;26.70;;;;;7.00;97906.00;;;;8469931;28;20591;-80
2022/11/11 08:08:06;;;;;;;328.77;22.37;;;;;7.10;97908.00;;;;8458286;28;20225;-80
2022/11/11 08:17:04;;;;;;;130.93;14.27;;;;;7.40;97920.00;;;;8459936;28;20523;-81
2022/11/11 08:21:08;;;;;;;354.50;23.57;;;;;7.50;97918.00;;;;8466251;28;20644;-82
2022/11/11 08:25:45;;;;;;;375.30;24.60;;;;;7.70;97929.00;;;;8465933;28;20219;-81
2022/11/11 08:29:50;;;;;;;479.70;28.80;;;;;7.70;97927.00;;;;8465554;28;20253;-83
2022/11/11 08:34:24;;;;;;;627.00;38.73;;;;;7.90;97931.00;;;;8465270;28;20226;-82
2022/11/11 08:43:59;;;;;;;449.77;26.33;;;;;7.90;97933.00;;;;8465198;28;20218;-84
2022/11/11 08:48:38;;;;;;;461.27;27.20;;;;;7.90;97934.00;;;;8464192;28;20226;-85
2022/11/11 08:53:11;;;;;;;402.70;26.08;;;;;7.90;97935.00;;;;8465876;28;20227;-86
2022/11/11 08:57:48;;;;;;;648.20;37.50;;;;;8.10;97939.00;;;;8463141;28;20214;-87
2022/11/11 09:02:24;;;;;;;374.93;26.80;;;;;8.30;97953.00;;;;8464852;28;20229;-86
2022/11/11 09:06:46;;;;;;;493.63;31.33;;;;;8.50;97945.00;;;;8463592;27;20214;-87
2022/11/11 09:11:20;;;;;;;638.80;37.47;;;;;8.70;97950.00;;;;8461137;28;20257;-87
2022/11/11 09:15:58;;;;;;;583.70;37.95;;;;;8.90;97950.00;;;;8464860;28;20640;-86
2022/11/11 09:20:36;;;;;;;753.85;59.88;;;;;9.10;97959.00;;;;8464142;28;20248;-82
2022/11/11 09:25:15;;;;;;;1021.28;185.70;;;;;9.30;97961.00;;;;8463707;28;20225;-83
2022/11/11 09:29:48;;;;;;;649.28;77.80;;;;;9.70;97970.00;;;;8462486;28;20223;-81
2022/11/11 09:34:25;;;;;;;393.00;28.35;;;;;10.00;97974.00;;;;8464384;28;20650;-82
2022/11/11 09:44:03;;;;;;;666.08;46.67;;;;;10.10;97972.00;;;;8462904;28;20358;-78
2022/11/11 09:48:41;;;;;;;122.80;15.40;;;;;10.10;97973.00;;;;8463396;28;20279;-85
2022/11/11 09:53:19;;;;;;;781.53;47.30;;;;;10.20;97973.00;;;;8469476;27;20226;-82
2022/11/11 09:57:57;;;;;;;646.03;38.65;;;;;10.20;97979.00;;;;8462704;28;20536;-83
2022/11/11 10:02:35;;;;;;;212.13;19.13;;;;;10.20;97983.00;;;;8463968;28;20603;-85
2022/11/11 10:07:09;;;;;;;589.95;41.92;;;;;10.30;97974.00;;;;8463175;28;20222;-84
2022/11/11 10:11:48;;;;;;;355.40;29.45;;;;;10.40;97984.00;;;;8462867;28;20249;-81
2022/11/11 10:16:26;;;;;;;884.40;57.92;;;;;10.40;97986.00;;;;8462767;28;20544;-75
2022/11/11 10:21:05;;;;;;;555.67;34.35;;;;;10.60;97991.00;;;;8462882;28;20221;-75
2022/11/11 10:25:35;;;;;;;328.83;33.30;;;;;10.40;97986.00;;;;8461510;28;20706;-74
2022/11/11 10:30:17;;;;;;;457.05;28.83;;;;;10.30;97992.00;;;;8463448;28;20276;-76
2022/11/11 10:34:48;;;;;;;745.33;42.78;;;;;10.30;97988.00;;;;8461209;28;20223;-76
2022/11/11 10:38:58;;;;;;;716.38;42.88;;;;;10.20;97985.00;;;;8461110;28;20267;-76
2022/11/11 10:43:01;;;;;;;315.33;21.75;;;;;10.10;97977.00;;;;8462065;28;20590;-76
2022/11/11 10:47:42;;;;;;;474.45;30.10;;;;;10.00;97969.00;;;;8460464;28;20273;-74
2022/11/11 10:52:19;;;;;;;123.25;18.58;;;;;10.10;97968.00;;;;8461911;28;20221;-75
2022/11/11 10:56:53;;;;;;;102.07;17.50;;;;;10.40;97954.00;;;;8461387;28;20218;-80
2022/11/11 11:01:30;;;;;;;84.75;20.77;;;;;10.60;97943.00;;;;8461302;28;20229;-81
2022/11/11 11:06:06;;;;;;;164.18;17.13;;;;;10.60;97935.00;;;;8461073;28;20537;-81
2022/11/11 11:10:40;;;;;;;109.70;14.38;;;;;10.60;97935.00;;;;8461886;28;20649;-80
2022/11/11 11:15:16;;;;;;;291.75;21.88;;;;;10.60;97936.00;;;;8460672;28;20555;-83
2022/11/11 11:20:09;;;;;;;92.97;15.05;;;;;10.50;97950.00;;;;8460653;28;20233;-81
2022/11/11 11:24:19;;;;;;;190.93;19.10;;;;;10.70;97956.00;;;;8452711;27;20281;-82
2022/11/11 11:28:22;;;;;;;209.93;19.65;;;;;10.90;97958.00;;;;8461815;28;20232;-80
2022/11/11 11:32:29;;;;;;;95.10;16.23;;;;;11.00;97956.00;;;;8458864;28;20218;-82
2022/11/11 11:37:04;;;;;;;78.72;16.73;;;;;11.30;97962.00;;;;8460652;28;20230;-81
2022/11/11 11:41:39;;;;;;;86.43;15.15;;;;;11.40;97959.00;;;;8460915;28;20249;-79
2022/11/11 11:46:19;;;;;;;52.35;14.80;;;;;11.20;97951.00;;;;8459853;28;20237;-78
2022/11/11 11:50:56;;;;;;;47.15;14.20;;;;;11.30;97938.00;;;;8460516;28;20217;-79
2022/11/11 11:55:34;;;;;;;66.25;15.88;;;;;11.50;97947.00;;;;8467490;28;20215;-80
2022/11/11 12:00:14;;;;;;;48.33;14.45;;;;;11.50;97955.00;;;;8466775;28;20532;-80
2022/11/11 12:05:01;;;;;;;43.63;13.85;;;;;11.40;97950.00;;;;8466334;28;20580;-81
2022/11/11 12:09:32;;;;;;;40.78;13.90;;;;;11.30;97943.00;;;;8467261;28;20544;-81
2022/11/11 12:14:18;;;;;;;36.90;14.05;;;;;11.50;97944.00;;;;8466499;28;20274;-80
2022/11/11 12:19:01;;;;;;;41.75;14.65;;;;;11.70;97951.00;;;;8465783;28;20239;-81
2022/11/11 12:47:57;;;;;;;40.17;15.57;;;;;10.20;97929.00;;;;8458173;27;20619;-78
2022/11/11 12:52:34;;;;;;;32.28;13.70;;;;;11.10;97932.00;;;;8455311;28;20583;-78
2022/11/11 12:57:05;;;;;;;30.95;13.13;;;;;11.50;97935.00;;;;8489578;27;20221;-78
2022/11/11 13:01:49;;;;;;;30.27;12.43;;;;;11.60;97933.00;;;;8486863;27;20217;-77
2022/11/11 13:06:03;;;;;;;30.13;13.02;;;;;11.90;97941.00;;;;8512768;27;20275;-75
2022/11/11 13:10:24;;;;;;;29.17;13.40;;;;;12.10;97934.00;;;;8490250;27;20221;-77
2022/11/11 13:14:52;;;;;;;26.95;12.85;;;;;12.30;97929.00;;;;8489740;27;20241;-77
2022/11/11 13:19:00;;;;;;;21.98;11.55;;;;;12.40;97923.00;;;;8456145;28;20270;-77
2022/11/11 13:23:09;;;;;;;20.15;11.75;;;;;12.50;97924.00;;;;8455719;28;20230;-75
2022/11/11 13:27:16;;;;;;;24.33;11.73;;;;;12.50;97925.00;;;;8455759;28;20219;-75
2022/11/11 13:31:47;;;;;;;21.88;11.73;;;;;12.40;97926.00;;;;8455601;28;20252;-76
2022/11/11 13:35:53;;;;;;;17.38;10.27;;;;;12.40;97919.00;;;;8489195;27;20647;-75
2022/11/11 13:40:04;;;;;;;20.08;10.80;;;;;12.40;97917.00;;;;8454474;28;20228;-75
2022/11/11 13:44:09;;;;;;;18.67;11.57;;;;;12.50;97925.00;;;;8454006;28;20244;-76
2022/11/11 13:48:23;;;;;;;19.35;10.65;;;;;12.60;97937.00;;;;8455367;28;20218;-76
2022/11/11 13:52:28;;;;;;;17.92;11.20;;;;;12.50;97936.00;;;;8454480;28;20226;-76
2022/11/11 13:57:02;;;;;;;17.98;10.70;;;;;12.20;97939.00;;;;8443454;28;20227;-77
2022/11/11 14:01:09;;;;;;;15.23;9.10;;;;;12.10;97933.00;;;;8432335;28;20237;-76
2022/11/11 14:05:43;;;;;;;18.98;11.52;;;;;12.00;97942.00;;;;8431850;28;20549;-77
2022/11/11 14:09:59;;;;;;;17.25;10.52;;;;;12.10;97939.00;;;;8431330;28;20552;-76
2022/11/11 14:14:35;;;;;;;16.42;10.30;;;;;12.00;97929.00;;;;8431912;28;20218;-76
2022/11/11 14:18:46;;;;;;;22.58;12.48;;;;;12.10;97924.00;;;;8421935;28;20218;-76
2022/11/11 14:22:49;;;;;;;19.38;11.88;;;;;12.10;97924.00;;;;8465169;28;20254;-76
2022/11/11 14:27:29;;;;;;;19.45;12.13;;;;;12.20;97925.00;;;;8464353;28;20225;-76
2022/11/11 14:32:09;;;;;;;23.10;12.88;;;;;12.30;97924.00;;;;8464503;28;20225;-76
2022/11/11 14:36:28;;;;;;;21.23;12.73;;;;;12.20;97928.00;;;;8463996;27;20229;-76
2022/11/11 14:40:56;;;;;;;22.10;12.10;;;;;12.10;97942.00;;;;8464161;27;20639;-75
2022/11/11 14:44:59;;;;;;;28.70;14.25;;;;;11.90;97936.00;;;;8463503;27;20221;-75
2022/11/11 14:49:39;;;;;;;25.20;13.07;;;;;11.70;97932.00;;;;8463513;27;20223;-74
2022/11/11 14:53:46;;;;;;;25.38;13.50;;;;;11.50;97937.00;;;;8464000;27;20572;-75
2022/11/11 14:57:52;;;;;;;24.02;13.50;;;;;11.30;97943.00;;;;8464627;27;20233;-75
2022/11/11 15:01:57;;;;;;;24.15;13.32;;;;;11.20;97936.00;;;;8464225;27;20211;-75
2022/11/11 15:06:04;;;;;;;29.40;15.07;;;;;11.10;97929.00;;;;8463668;27;20644;-75
2022/11/11 15:10:26;;;;;;;28.73;15.10;;;;;11.00;97932.00;;;;8462825;27;20520;-75
2022/11/11 15:14:36;;;;;;;32.78;16.02;;;;;10.90;97934.00;;;;8463777;27;20251;-74
2022/11/11 15:19:09;;;;;;;42.65;16.23;;;;;10.90;97934.00;;;;8463430;27;20598;-75
2022/11/11 15:23:22;;;;;;;43.80;16.60;;;;;10.90;97928.00;;;;8463355;27;20234;-75
2022/11/11 15:27:36;;;;;;;54.70;17.83;;;;;10.70;97931.00;;;;8462764;27;20242;-75
2022/11/11 15:31:47;;;;;;;53.40;17.38;;;;;10.70;97940.00;;;;8462814;27;20225;-75
2022/11/11 15:36:18;;;;;;;97.47;17.63;;;;;10.70;97928.00;;;;8462969;27;20543;-75
2022/11/11 15:40:22;;;;;;;132.25;19.15;;;;;10.60;97926.00;;;;8462776;27;20228;-75
2022/11/11 15:44:29;;;;;;;185.15;19.98;;;;;10.60;97926.00;;;;8462268;27;20225;-75
2022/11/11 15:48:39;;;;;;;136.90;18.27;;;;;10.50;97930.00;;;;8462146;27;20227;-75
2022/11/11 15:53:10;;;;;;;327.70;22.60;;;;;10.40;97930.00;;;;8462090;27;20223;-75
2022/11/11 15:57:23;;;;;;;197.45;22.58;;;;;10.40;97922.00;;;;8462529;27;20213;-75
2022/11/11 16:01:28;;;;;;;208.82;22.42;;;;;10.30;97926.00;;;;8461981;27;20220;-75
2022/11/11 16:06:03;;;;;;;293.88;25.17;;;;;10.30;97929.00;;;;8462100;27;20560;-74
2022/11/11 16:10:09;;;;;;;392.75;26.40;;;;;10.30;97922.00;;;;8462238;27;20217;-74
2022/11/11 16:14:23;;;;;;;395.25;27.70;;;;;10.20;97932.00;;;;8461613;27;20601;-75
2022/11/11 16:18:32;;;;;;;327.52;23.10;;;;;10.20;97930.00;;;;8461720;27;20240;-74
2022/11/11 16:23:04;;;;;;;431.58;27.88;;;;;10.10;97920.00;;;;8460796;27;20606;-75
2022/11/11 16:27:08;;;;;;;447.83;30.20;;;;;10.00;97926.00;;;;8461225;27;20678;-75
2022/11/11 16:31:22;;;;;;;361.58;27.17;;;;;10.00;97916.00;;;;8461327;27;20222;-74
2022/11/11 16:36:06;;;;;;;309.67;25.38;;;;;10.00;97913.00;;;;8459434;27;20219;-74
2022/11/11 16:40:34;;;;;;;237.70;22.98;;;;;9.80;97909.00;;;;8461201;27;20532;-75
2022/11/11 16:44:40;;;;;;;587.70;36.25;;;;;9.90;97911.00;;;;8424881;28;20219;-74
2022/11/11 16:48:50;;;;;;;335.90;27.65;;;;;9.90;97918.00;;;;8425089;28;20233;-78
2022/11/11 16:53:32;;;;;;;305.30;28.85;;;;;9.80;97917.00;;;;8424148;28;20218;-76
2022/11/11 16:57:41;;;;;;;610.65;39.33;;;;;9.70;97912.00;;;;8426867;28;20219;-76
2022/11/11 17:02:16;;;;;;;968.10;375.85;;;;;9.70;97919.00;;;;8426794;28;20280;-76
2022/11/11 17:06:58;;;;;;;1411.82;492.83;;;;;9.60;97921.00;;;;8427062;28;20606;-76
2022/11/11 17:11:39;;;;;;;611.45;50.42;;;;;9.60;97925.00;;;;8426471;28;20215;-76
2022/11/11 17:16:17;;;;;;;627.40;40.38;;;;;9.60;97922.00;;;;8457693;28;20225;-75
2022/11/11 17:20:51;;;;;;;248.20;27.27;;;;;9.60;97926.00;;;;8460130;28;20301;-76
2022/11/11 17:25:28;;;;;;;496.35;35.95;;;;;9.50;97926.00;;;;8460436;27;20632;-76
2022/11/11 17:29:31;;;;;;;477.33;33.13;;;;;9.40;97932.00;;;;8459970;27;20576;-76
2022/11/11 17:34:09;;;;;;;359.70;32.08;;;;;9.40;97915.00;;;;8464934;27;20608;-76
2022/11/11 18:21:05;;;;;;;442.88;37.67;;;;;9.00;97920.00;;;;8786743;23;20615;-74
2022/11/11 18:25:09;;;;;;;419.23;30.65;;;;;8.90;97916.00;;;;8242136;28;20277;-74
2022/11/11 18:29:12;;;;;;;313.17;29.65;;;;;8.80;97921.00;;;;8247557;28;20746;-73
2022/11/11 18:33:15;;;;;;;629.63;79.67;;;;;8.80;97926.00;;;;8250812;28;20225;-76
2022/11/11 18:37:19;;;;;;;478.27;31.38;;;;;8.70;97916.00;;;;8248477;28;20226;-72
2022/11/11 18:41:23;;;;;;;661.25;39.90;;;;;8.60;97916.00;;;;8242575;28;20218;-72
2022/11/11 18:45:27;;;;;;;690.88;40.97;;;;;8.50;97925.00;;;;8256084;28;20241;-72
2022/11/11 18:49:30;;;;;;;539.25;36.05;;;;;8.40;97918.00;;;;8241450;28;20278;-72
2022/11/11 18:53:36;;;;;;;719.63;41.47;;;;;8.40;97919.00;;;;8238914;28;20231;-75
2022/11/11 18:57:39;;;;;;;469.27;34.45;;;;;8.40;97924.00;;;;8237725;28;20721;-74
2022/11/11 19:01:43;;;;;;;364.48;29.52;;;;;8.50;97938.00;;;;8249279;28;20238;-76
2022/11/11 19:05:46;;;;;;;525.10;35.60;;;;;8.40;97942.00;;;;8250977;28;20266;-75
2022/11/11 19:09:51;;;;;;;383.73;31.65;;;;;8.30;97946.00;;;;8256914;28;20226;-75
2022/11/11 19:13:54;;;;;;;432.47;31.87;;;;;8.40;97944.00;;;;8252902;28;20231;-76
2022/11/11 19:17:57;;;;;;;327.77;25.60;;;;;8.40;97950.00;;;;8257742;28;22669;-74
2022/11/11 19:22:00;;;;;;;678.10;38.15;;;;;8.20;97956.00;;;;8216012;28;20235;-75
2022/11/11 19:26:06;;;;;;;532.60;30.87;;;;;8.20;97956.00;;;;8229108;28;20253;-75
2022/11/11 19:30:10;;;;;;;463.23;33.27;;;;;8.30;97955.00;;;;8220589;28;21032;-74
2022/11/11 19:34:13;;;;;;;601.83;37.33;;;;;8.30;97949.00;;;;8221420;28;20281;-74
2022/11/11 19:38:16;;;;;;;457.73;32.08;;;;;8.30;97953.00;;;;8224203;28;20723;-76
2022/11/11 19:42:21;;;;;;;466.30;36.03;;;;;8.30;97967.00;;;;8208497;28;20219;-77
2022/11/11 19:46:26;;;;;;;527.33;33.17;;;;;8.40;97959.00;;;;8214547;28;20235;-74
2022/11/11 19:50:30;;;;;;;553.27;35.07;;;;;8.30;97964.00;;;;8213950;28;20973;-76
2022/11/11 19:54:33;;;;;;;532.43;35.23;;;;;8.30;97964.00;;;;8211892;28;20250;-77
2022/11/11 19:58:38;;;;;;;469.43;30.93;;;;;8.20;97978.00;;;;8208232;28;20234;-72
2022/11/11 20:02:42;;;;;;;383.27;26.80;;;;;8.10;97984.00;;;;8209130;28;21900;-76
2022/11/11 20:06:45;;;;;;;313.80;24.60;;;;;8.00;97977.00;;;;8214762;28;20233;-77
2022/11/11 20:10:48;;;;;;;491.47;29.03;;;;;8.10;97975.00;;;;8210439;28;20796;-74
2022/11/11 20:14:53;;;;;;;458.00;28.40;;;;;8.10;97966.00;;;;8212365;28;20226;-80
2022/11/11 20:18:57;;;;;;;473.17;29.93;;;;;8.10;97974.00;;;;8210128;28;20239;-75
2022/11/11 20:23:04;;;;;;;414.83;26.92;;;;;8.10;97968.00;;;;8206783;28;23877;-76
2022/11/11 20:27:08;;;;;;;400.42;25.92;;;;;8.10;97969.00;;;;8207024;28;20808;-74
2022/11/11 20:31:14;;;;;;;401.63;26.80;;;;;8.10;97974.00;;;;8210250;28;20262;-73
2022/11/11 20:35:17;;;;;;;516.73;29.33;;;;;8.10;97971.00;;;;8214945;28;20230;-73
2022/11/11 20:39:20;;;;;;;434.00;28.40;;;;;8.10;97973.00;;;;8214641;28;20771;-72
2022/11/11 20:43:23;;;;;;;446.58;28.17;;;;;8.00;97963.00;;;;8213659;28;20223;-73
2022/11/11 20:47:28;;;;;;;402.42;28.33;;;;;8.10;97972.00;;;;8209187;28;20245;-74
2022/11/11 20:51:36;;;;;;;387.70;27.00;;;;;8.10;97975.00;;;;8213036;28;20314;-73
2022/11/11 20:55:39;;;;;;;482.92;34.00;;;;;8.00;97972.00;;;;8201625;28;20231;-74
2022/11/11 20:59:42;;;;;;;474.35;30.48;;;;;7.70;97963.00;;;;8208407;28;20230;-74
2022/11/11 21:03:47;;;;;;;558.97;32.70;;;;;7.60;97962.00;;;;8206381;28;20253;-73
2022/11/11 21:07:50;;;;;;;471.70;28.43;;;;;7.60;97958.00;;;;8212625;28;20235;-73
2022/11/11 21:11:53;;;;;;;442.60;27.20;;;;;7.60;97953.00;;;;8216162;28;20281;-75
2022/11/11 21:16:04;;;;;;;601.50;33.40;;;;;7.60;97961.00;;;;8215580;28;20228;-75
2022/11/11 21:20:09;;;;;;;555.93;30.53;;;;;7.50;97952.00;;;;8218953;28;20236;-76
2022/11/11 21:24:12;;;;;;;516.67;28.20;;;;;7.50;97959.00;;;;8219940;28;20301;-75
2022/11/11 21:28:15;;;;;;;432.63;25.47;;;;;7.40;97966.00;;;;8223022;28;20244;-73
2022/11/11 21:32:20;;;;;;;404.10;24.13;;;;;7.40;97968.00;;;;8234600;28;20277;-74
2022/11/11 21:36:26;;;;;;;416.27;25.95;;;;;7.30;97952.00;;;;8211883;28;20232;-73
2022/11/11 21:40:29;;;;;;;481.17;24.60;;;;;7.20;97958.00;;;;8219264;28;20293;-73
2022/11/11 21:44:33;;;;;;;437.67;24.17;;;;;7.10;97954.00;;;;8217188;28;20238;-73
2022/11/11 21:48:36;;;;;;;441.48;23.25;;;;;7.00;97950.00;;;;8217630;28;20751;-73
2022/11/11 21:52:41;;;;;;;423.47;23.50;;;;;7.10;97945.00;;;;8217946;28;20689;-74
2022/11/11 21:56:46;;;;;;;438.53;23.40;;;;;7.10;97948.00;;;;8212899;28;20227;-73
2022/11/11 22:00:49;;;;;;;371.57;21.23;;;;;7.10;97944.00;;;;8216138;28;20643;-71
2022/11/11 22:04:52;;;;;;;507.85;24.50;;;;;7.00;97942.00;;;;8217846;28;20680;-73
2022/11/11 22:08:58;;;;;;;476.03;23.40;;;;;7.10;97944.00;;;;8224870;28;20820;-72
2022/11/11 22:13:01;;;;;;;222.27;16.50;;;;;7.10;97941.00;;;;8230415;28;20223;-73
2022/11/11 22:17:04;;;;;;;502.70;25.33;;;;;7.10;97942.00;;;;8217509;28;20391;-73
2022/11/11 22:21:09;;;;;;;504.47;26.90;;;;;7.00;97941.00;;;;8226222;28;20266;-72
2022/11/11 22:25:16;;;;;;;366.80;20.97;;;;;7.00;97944.00;;;;8216741;28;20820;-73
2022/11/11 22:29:19;;;;;;;314.53;19.77;;;;;7.00;97948.00;;;;8226045;28;20227;-73
2022/11/11 22:33:23;;;;;;;533.50;27.50;;;;;6.90;97945.00;;;;8215877;28;20234;-73
2022/11/11 22:37:26;;;;;;;395.03;22.60;;;;;6.90;97947.00;;;;8214526;28;20227;-72
2022/11/11 22:41:32;;;;;;;489.97;27.43;;;;;6.90;97942.00;;;;8217993;28;20247;-73
2022/11/11 22:45:36;;;;;;;330.60;21.27;;;;;6.90;97940.00;;;;8218008;28;20235;-73
2022/11/11 22:49:39;;;;;;;296.93;21.67;;;;;7.00;97937.00;;;;8234523;28;20235;-75
2022/11/11 22:53:43;;;;;;;576.63;31.37;;;;;7.00;97927.00;;;;8225847;28;20231;-73
2022/11/11 22:57:47;;;;;;;315.13;20.70;;;;;6.90;97923.00;;;;8224961;28;20223;-74
2022/11/11 23:01:51;;;;;;;282.07;19.30;;;;;6.90;97931.00;;;;8216563;28;20256;-72
2022/11/11 23:06:00;;;;;;;456.27;24.70;;;;;6.80;97929.00;;;;8235312;28;20938;-72
2022/11/11 23:10:03;;;;;;;446.40;23.47;;;;;6.80;97930.00;;;;8218149;28;20235;-75
2022/11/11 23:14:13;;;;;;;411.53;21.47;;;;;6.90;97930.00;;;;8225679;28;20223;-72
2022/11/11 23:18:16;;;;;;;298.80;19.63;;;;;6.90;97929.00;;;;8217688;28;20239;-73
2022/11/11 23:22:19;;;;;;;446.13;22.47;;;;;6.80;97930.00;;;;8224518;28;20237;-74
2022/11/11 23:26:24;;;;;;;365.08;19.20;;;;;6.90;97928.00;;;;8226395;28;20231;-71
2022/11/11 23:30:28;;;;;;;390.03;22.90;;;;;6.90;97931.00;;;;8216522;28;20232;-72